Hauptseite
METAR-TAF:

METAR-TAF

Flughäfen :

Waterbury-Oxford Airport

Oxford, Connecticut, Vereinigte Staaten

Breite: 41-29N, Länge: 073-08W, Höhe: 222 m

Beobachtung

Neuester Wetterbericht von vor 33 Minuten, um 19:54 UTC
Wind 5 kt aus unterschiedlichen Richtungen
Temperatur 11°C
Luftfeuchtigkeit 100%
Luftdruck 1014 hPa
Sichtweite: 3.2 km
Durchbrochene Bewölkung in der Höhe von 300 ft
Geschlossene Wolkendecke in der Höhe von 700 ft
Leichtregen, feuchter Dunst

METAR: KOXC 091954Z VRB05KT 2SM -RA BR BKN003 OVC007 11/11 A2993 RMK AO2 P0000

Zeit: 15:27 (20:27 UTC)


TAF: fehlend

Wetterbeobachtungen und Prognosen von mehr als 4000 Flughäfen (METAR und TAF Bericht).

Die verfügbaren Stationen werden durch gelbe und rote Markierungen auf der Karte dargestellt.

Führen Sie die Maus auf sie, um den Namen der Station zu sehen.

Darauf klicken, um die Beobachtung von Wetterbeobachtungen und Prognosen zu sehen.

Um die Karte zu ändern : klicken Sie auf den grünen Tasten mit einem schwarzen Kreuz Zum Vergrößern, auf den grünen Button mit einem Gedankenstrich zu verkleinern, oder auf die grünen Pfeile für benachbarte Karten.


METAR-TAF: